createdAt,value
2023-03-15T00:01:07.976Z,2.40
2023-03-15T00:03:37.430Z,2.60
2023-03-15T00:06:06.387Z,2.80
2023-03-15T00:08:34.575Z,2.20
2023-03-15T00:11:03.905Z,2.10
2023-03-15T00:13:32.579Z,2.27
2023-03-15T00:16:03.073Z,2.13
2023-03-15T00:18:31.109Z,4.83
2023-03-15T00:20:59.409Z,4.80
2023-03-15T00:23:27.580Z,4.40
2023-03-15T00:25:55.919Z,5.63
2023-03-15T00:28:25.193Z,5.60
2023-03-15T00:31:04.812Z,8.10
2023-03-15T00:33:35.060Z,6.20
2023-03-15T00:36:06.121Z,5.83
2023-03-15T00:38:34.556Z,5.80
2023-03-15T00:41:07.201Z,7.63
2023-03-15T00:43:36.653Z,6.07
2023-03-15T00:46:06.025Z,5.63
2023-03-15T00:48:35.368Z,5.00
2023-03-15T00:51:05.061Z,5.53
2023-03-15T00:53:33.038Z,5.50
2023-03-15T00:56:05.708Z,5.53
2023-03-15T00:58:33.601Z,4.97
2023-03-15T01:01:07.136Z,5.40
2023-03-15T01:03:36.859Z,5.63
2023-03-15T01:06:08.767Z,5.30
2023-03-15T01:08:37.097Z,5.40
2023-03-15T01:11:06.977Z,5.27
2023-03-15T01:13:35.118Z,5.30
2023-03-15T01:16:05.002Z,5.33
2023-03-15T01:18:33.019Z,5.07
2023-03-15T01:21:01.536Z,5.30
2023-03-15T01:23:29.405Z,5.30
2023-03-15T01:26:01.248Z,5.30
2023-03-15T01:28:29.463Z,4.87
2023-03-15T01:30:59.461Z,5.03
2023-03-15T01:33:29.919Z,5.23
2023-03-15T01:36:03.118Z,5.63
2023-03-15T01:38:31.689Z,4.83
2023-03-15T01:40:59.681Z,4.97
2023-03-15T01:43:29.349Z,4.97
2023-03-15T01:46:25.582Z,5.47
2023-03-15T01:49:01.500Z,5.10
2023-03-15T01:51:34.791Z,4.87
2023-03-15T01:54:08.070Z,5.30
2023-03-15T01:56:39.618Z,4.53
2023-03-15T01:59:13.245Z,4.93
2023-03-15T02:01:45.938Z,5.00
2023-03-15T02:04:20.608Z,4.77
2023-03-15T02:06:50.628Z,5.23
2023-03-15T02:09:22.126Z,4.93
2023-03-15T02:11:50.126Z,4.80
2023-03-15T02:14:18.711Z,5.30
2023-03-15T02:16:46.685Z,5.00
2023-03-15T02:19:30.238Z,5.00
2023-03-15T02:22:12.290Z,4.60
2023-03-15T02:24:48.791Z,4.90
2023-03-15T02:27:23.481Z,5.03
2023-03-15T02:29:51.490Z,4.33
2023-03-15T02:32:19.414Z,4.27
2023-03-15T02:34:47.344Z,4.37
2023-03-15T02:37:15.399Z,4.13
2023-03-15T02:39:43.288Z,4.20
2023-03-15T02:42:11.553Z,4.37
2023-03-15T02:44:43.080Z,4.13
2023-03-15T02:47:14.784Z,4.10
2023-03-15T02:49:46.263Z,4.67
2023-03-15T02:52:14.856Z,3.93
2023-03-15T02:54:43.469Z,4.47
2023-03-15T02:57:12.364Z,3.37
2023-03-15T02:59:42.994Z,3.53
2023-03-15T03:02:12.805Z,3.70
2023-03-15T03:04:41.709Z,3.40
2023-03-15T03:07:09.845Z,3.47
2023-03-15T03:09:37.749Z,3.27
2023-03-15T03:12:06.421Z,3.13
2023-03-15T03:14:34.391Z,2.70
2023-03-15T03:17:03.723Z,3.03
2023-03-15T03:19:31.582Z,2.90
2023-03-15T03:21:59.471Z,2.77
2023-03-15T03:24:27.597Z,2.97
2023-03-15T03:26:58.330Z,3.17
2023-03-15T03:29:27.274Z,2.90
2023-03-15T03:31:55.810Z,2.83
2023-03-15T03:34:25.092Z,2.80
2023-03-15T03:36:53.377Z,3.00
2023-03-15T03:39:21.320Z,3.00
2023-03-15T03:41:49.973Z,2.60
2023-03-15T03:44:18.415Z,2.73
2023-03-15T03:46:46.332Z,3.23
2023-03-15T03:49:14.850Z,2.50
2023-03-15T03:51:44.189Z,2.93
2023-03-15T03:54:12.085Z,2.80
2023-03-15T03:56:40.226Z,2.50
2023-03-15T03:59:08.214Z,2.93
2023-03-15T04:01:36.123Z,3.07
2023-03-15T04:04:03.998Z,2.80
2023-03-15T04:06:32.515Z,2.53
2023-03-15T04:09:05.181Z,2.50
2023-03-15T04:11:36.307Z,2.83
2023-03-15T04:14:04.226Z,2.47
2023-03-15T04:16:32.191Z,2.80
2023-03-15T04:19:00.148Z,2.90
2023-03-15T04:21:31.848Z,2.40
2023-03-15T04:24:01.669Z,2.63
2023-03-15T04:26:30.221Z,3.83
2023-03-15T04:29:00.847Z,3.20
2023-03-15T04:31:28.963Z,3.13
2023-03-15T04:33:57.724Z,2.50
2023-03-15T04:36:25.694Z,2.77
2023-03-15T04:39:04.304Z,2.87
2023-03-15T04:41:35.888Z,2.90
2023-03-15T04:44:04.718Z,2.70
2023-03-15T04:46:33.049Z,3.13
2023-03-15T04:49:01.069Z,3.17
2023-03-15T04:51:28.982Z,2.90
2023-03-15T04:53:56.930Z,2.70
2023-03-15T04:56:24.953Z,2.77
2023-03-15T04:58:54.253Z,3.00
2023-03-15T05:01:23.112Z,2.63
2023-03-15T05:03:51.137Z,3.10
2023-03-15T05:06:19.032Z,2.97
2023-03-15T05:08:47.126Z,3.33
2023-03-15T05:11:15.139Z,3.20
2023-03-15T05:13:43.025Z,3.20
2023-03-15T05:16:12.252Z,3.07
2023-03-15T05:18:41.050Z,3.30
2023-03-15T05:21:08.976Z,2.60
2023-03-15T05:23:36.870Z,3.13
2023-03-15T05:26:04.943Z,2.83
2023-03-15T05:28:32.899Z,3.03
2023-03-15T05:31:02.487Z,2.77
2023-03-15T05:33:31.819Z,3.20
2023-03-15T05:35:59.935Z,3.30
2023-03-15T05:38:27.995Z,3.20
2023-03-15T05:40:55.969Z,3.13
2023-03-15T05:43:23.903Z,2.70
2023-03-15T05:45:52.332Z,2.77
2023-03-15T05:48:20.388Z,2.83
2023-03-15T05:50:50.013Z,2.67
2023-03-15T05:53:17.916Z,2.90
2023-03-15T05:55:45.895Z,3.40
2023-03-15T05:58:13.869Z,2.90
2023-03-15T06:00:41.791Z,3.00
2023-03-15T06:03:09.793Z,2.80
2023-03-15T06:05:37.716Z,2.50
2023-03-15T06:08:07.151Z,2.93
2023-03-15T06:10:35.340Z,3.10
2023-03-15T06:13:03.350Z,2.83
2023-03-15T06:15:31.266Z,2.80
2023-03-15T06:17:59.290Z,3.20
2023-03-15T06:20:27.473Z,2.93
2023-03-15T06:22:55.536Z,2.93
2023-03-15T06:25:25.065Z,2.70
2023-03-15T06:27:53.038Z,2.90
2023-03-15T06:30:21.329Z,3.30
2023-03-15T06:32:49.384Z,3.00
2023-03-15T06:35:17.530Z,3.10
2023-03-15T06:37:45.519Z,3.17
2023-03-15T06:40:14.393Z,3.00
2023-03-15T06:42:43.859Z,3.10
2023-03-15T06:45:12.490Z,3.20
2023-03-15T06:47:40.544Z,3.20
2023-03-15T06:50:09.682Z,3.03
2023-03-15T06:52:38.797Z,3.27
2023-03-15T06:55:07.612Z,3.17
2023-03-15T06:57:35.560Z,3.30
2023-03-15T07:00:11.450Z,3.60
2023-03-15T07:02:39.426Z,3.60
2023-03-15T07:05:08.372Z,3.80
2023-03-15T07:07:36.390Z,3.60
2023-03-15T07:10:04.648Z,21.50
2023-03-15T07:12:32.679Z,18.13
2023-03-15T07:15:00.567Z,3.90
2023-03-15T07:17:30.394Z,3.20
2023-03-15T07:19:58.402Z,4.03
2023-03-15T07:22:26.797Z,3.77
2023-03-15T07:24:54.771Z,3.37
2023-03-15T07:27:22.718Z,4.07
2023-03-15T07:29:50.648Z,3.50
2023-03-15T07:32:18.823Z,3.47
2023-03-15T07:34:48.196Z,3.00
2023-03-15T07:37:17.476Z,3.40
2023-03-15T07:39:45.493Z,3.57
2023-03-15T07:42:13.760Z,3.77
2023-03-15T07:44:41.743Z,3.30
2023-03-15T07:47:09.864Z,3.60
2023-03-15T07:49:37.841Z,3.17
2023-03-15T07:52:08.034Z,3.47
2023-03-15T07:54:36.037Z,3.00
2023-03-15T07:57:04.190Z,2.60
2023-03-15T07:59:32.553Z,3.10
2023-03-15T08:02:02.779Z,2.60
2023-03-15T08:04:30.939Z,2.63
2023-03-15T08:06:59.026Z,2.43
2023-03-15T08:09:28.630Z,2.60
2023-03-15T08:11:56.605Z,3.20
2023-03-15T08:14:24.733Z,2.17
2023-03-15T08:16:53.009Z,2.10
2023-03-15T08:19:22.192Z,2.10
2023-03-15T08:21:54.015Z,2.33
2023-03-15T08:24:22.709Z,2.37
2023-03-15T08:26:52.628Z,2.58
2023-03-15T08:29:20.663Z,2.15
2023-03-15T08:31:48.642Z,2.30
2023-03-15T08:34:17.195Z,2.58
2023-03-15T08:36:47.541Z,2.80
2023-03-15T08:39:16.230Z,3.78
2023-03-15T08:41:45.679Z,2.45
2023-03-15T08:44:15.108Z,2.10
2023-03-15T08:46:43.281Z,2.15
2023-03-15T08:49:11.545Z,2.70
2023-03-15T08:51:39.565Z,3.00
2023-03-15T08:54:08.857Z,3.08
2023-03-15T08:56:37.352Z,3.10
2023-03-15T08:59:06.463Z,2.63
2023-03-15T09:01:36.059Z,3.10
2023-03-15T09:04:05.632Z,2.97
2023-03-15T09:06:33.760Z,2.90
2023-03-15T09:09:02.246Z,2.60
2023-03-15T09:11:30.296Z,2.85
2023-03-15T09:13:58.252Z,2.65
2023-03-15T09:16:26.306Z,2.78
2023-03-15T09:18:55.760Z,2.67
2023-03-15T09:21:24.781Z,2.80
2023-03-15T09:23:52.845Z,2.50
2023-03-15T09:26:23.523Z,2.50
2023-03-15T09:28:51.546Z,2.92
2023-03-15T09:31:19.647Z,2.40
2023-03-15T09:33:47.662Z,2.30
2023-03-15T09:36:18.478Z,2.10
2023-03-15T09:38:47.904Z,2.42
2023-03-15T09:41:22.986Z,2.33
2023-03-15T09:44:06.777Z,2.78
2023-03-15T09:46:42.099Z,2.80
2023-03-15T09:49:15.622Z,2.53
2023-03-15T09:52:26.339Z,3.58
2023-03-15T09:55:28.466Z,3.90
2023-03-15T09:58:01.648Z,3.92
2023-03-15T10:00:40.305Z,3.78
2023-03-15T10:03:17.834Z,3.55
2023-03-15T10:05:49.019Z,3.47
2023-03-15T10:08:22.503Z,2.78
2023-03-15T10:10:55.556Z,3.30
2023-03-15T10:13:42.498Z,3.00
2023-03-15T10:16:24.179Z,2.55
2023-03-15T10:19:06.939Z,2.50
2023-03-15T10:21:42.995Z,2.20
2023-03-15T10:24:20.429Z,2.50
2023-03-15T10:26:50.460Z,2.60
2023-03-15T10:29:22.395Z,2.50
2023-03-15T10:31:52.794Z,2.30
2023-03-15T10:34:22.002Z,2.70
2023-03-15T10:36:54.466Z,2.38
2023-03-15T10:39:26.178Z,2.33
2023-03-15T10:41:54.817Z,2.53
2023-03-15T10:44:25.832Z,2.40
2023-03-15T10:47:21.607Z,2.47
2023-03-15T10:49:50.905Z,2.25
2023-03-15T10:52:36.159Z,2.40
2023-03-15T10:55:11.751Z,2.63
2023-03-15T10:57:40.987Z,2.30
2023-03-15T11:00:27.202Z,3.00
2023-03-15T11:03:03.500Z,2.55
2023-03-15T11:05:33.275Z,3.33
2023-03-15T11:08:02.405Z,2.58
2023-03-15T11:10:36.342Z,2.70
2023-03-15T11:13:12.258Z,2.92
2023-03-15T11:15:47.993Z,2.83
2023-03-15T11:18:20.471Z,3.00
2023-03-15T11:20:48.528Z,2.95
2023-03-15T11:23:20.538Z,2.83
2023-03-15T11:25:50.577Z,2.83
2023-03-15T11:28:21.608Z,2.70
2023-03-15T11:30:50.218Z,2.95
2023-03-15T11:33:34.860Z,3.05
2023-03-15T11:36:11.171Z,2.58
2023-03-15T11:38:44.195Z,2.85
2023-03-15T11:41:22.963Z,2.58
2023-03-15T11:44:02.516Z,2.80
2023-03-15T11:46:35.658Z,2.78
2023-03-15T11:49:11.116Z,2.67
2023-03-15T11:51:39.346Z,2.75
2023-03-15T11:54:13.426Z,2.78
2023-03-15T11:56:55.322Z,2.95
2023-03-15T11:59:28.600Z,2.75
2023-03-15T12:01:59.126Z,3.50
2023-03-15T12:04:51.067Z,3.15
2023-03-15T12:07:31.429Z,3.22
2023-03-15T12:10:21.724Z,3.53
2023-03-15T12:12:59.038Z,3.33
2023-03-15T12:15:54.389Z,2.90
2023-03-15T12:21:33.679Z,3.55
2023-03-15T12:24:05.394Z,3.10
2023-03-15T12:26:42.112Z,3.30
2023-03-15T12:29:20.092Z,3.08
2023-03-15T12:32:05.653Z,3.13
2023-03-15T12:34:45.379Z,3.13
2023-03-15T12:37:21.657Z,2.85
2023-03-15T12:43:03.271Z,3.17
2023-03-15T12:45:45.715Z,2.97
2023-03-15T12:48:28.325Z,2.87
2023-03-15T12:51:01.764Z,3.10
2023-03-15T12:53:38.852Z,3.10
2023-03-15T12:56:39.488Z,3.00
2023-03-15T12:59:18.277Z,2.80
2023-03-15T13:01:48.264Z,3.07
2023-03-15T13:04:16.528Z,2.90
2023-03-15T13:07:04.610Z,3.50
2023-03-15T13:09:53.963Z,3.30
2023-03-15T13:12:29.910Z,3.00
2023-03-15T13:15:04.019Z,2.83
2023-03-15T13:17:41.640Z,2.80
2023-03-15T13:20:24.410Z,2.63
2023-03-15T13:23:02.202Z,2.70
2023-03-15T13:25:38.305Z,2.70
2023-03-15T13:28:12.073Z,2.50
2023-03-15T13:30:42.191Z,2.60
2023-03-15T13:33:22.553Z,2.50
2023-03-15T13:35:56.933Z,2.63
2023-03-15T13:38:30.965Z,2.80
2023-03-15T13:41:00.657Z,2.80
2023-03-15T13:43:32.239Z,3.10
2023-03-15T13:46:01.357Z,2.67
2023-03-15T13:48:32.730Z,3.38
2023-03-15T13:51:06.290Z,3.00
2023-03-15T13:53:48.907Z,2.90
2023-03-15T13:56:20.361Z,3.20
2023-03-15T13:58:50.150Z,2.70
2023-03-15T14:01:18.888Z,2.65
2023-03-15T14:03:55.989Z,2.85
2023-03-15T14:06:26.779Z,2.45
2023-03-15T14:08:56.100Z,2.42
2023-03-15T14:11:37.529Z,2.78
2023-03-15T14:14:23.186Z,2.22
2023-03-15T14:17:04.286Z,2.63
2023-03-15T14:19:36.948Z,2.42
2023-03-15T14:22:15.520Z,2.28
2023-03-15T14:24:45.006Z,2.57
2023-03-15T14:27:18.020Z,2.22
2023-03-15T14:29:49.192Z,2.05
2023-03-15T14:32:28.447Z,2.60
2023-03-15T14:35:05.848Z,2.77
2023-03-15T14:37:39.549Z,2.53
2023-03-15T14:40:16.928Z,2.50
2023-03-15T14:42:45.549Z,2.50
2023-03-15T14:45:14.216Z,2.60
2023-03-15T14:47:55.946Z,2.83
2023-03-15T14:50:28.635Z,2.43
2023-03-15T14:52:58.418Z,2.73
2023-03-15T14:55:33.417Z,2.73
2023-03-15T14:58:01.574Z,2.47
2023-03-15T15:00:29.569Z,2.30
2023-03-15T15:02:58.544Z,2.57
2023-03-15T15:05:35.311Z,2.60
2023-03-15T15:08:06.147Z,2.60
2023-03-15T15:10:35.444Z,2.90
2023-03-15T15:13:06.806Z,3.10
2023-03-15T15:15:53.509Z,2.27
2023-03-15T15:18:24.318Z,2.90
2023-03-15T15:20:56.108Z,2.70
2023-03-15T15:23:26.921Z,2.90
2023-03-15T15:25:57.544Z,3.40
2023-03-15T15:28:34.547Z,2.70
2023-03-15T15:31:03.066Z,3.10
2023-03-15T15:33:34.161Z,2.90
2023-03-15T15:36:07.472Z,3.03
2023-03-15T15:38:38.873Z,2.90
2023-03-15T15:41:12.135Z,2.97
2023-03-15T15:43:40.095Z,2.90
2023-03-15T15:46:12.623Z,2.77
2023-03-15T15:48:41.617Z,3.00
2023-03-15T15:51:21.408Z,3.17
2023-03-15T15:53:49.469Z,3.33
2023-03-15T15:56:18.429Z,3.37
2023-03-15T15:58:47.694Z,2.70
2023-03-15T16:01:16.874Z,3.20
2023-03-15T16:03:46.961Z,3.23
2023-03-15T16:06:19.486Z,2.77
2023-03-15T16:08:50.169Z,2.70
2023-03-15T16:11:19.492Z,2.70
2023-03-15T16:13:49.147Z,2.67
2023-03-15T16:16:18.471Z,2.40
2023-03-15T16:18:46.728Z,2.30
2023-03-15T16:21:26.647Z,3.40
2023-03-15T16:23:58.335Z,2.63
2023-03-15T16:26:26.660Z,2.40
2023-03-15T16:28:54.687Z,2.60
2023-03-15T16:31:23.115Z,2.67
2023-03-15T16:33:51.339Z,2.67
2023-03-15T16:36:22.350Z,2.73
2023-03-15T16:38:50.751Z,2.80
2023-03-15T16:41:19.274Z,3.47
2023-03-15T16:43:49.203Z,2.77
2023-03-15T16:46:17.901Z,3.43
2023-03-15T16:48:45.994Z,3.30
2023-03-15T16:51:16.849Z,4.03
2023-03-15T16:53:46.350Z,3.13
2023-03-15T16:56:16.462Z,3.13
2023-03-15T16:58:45.350Z,2.97
2023-03-15T17:01:13.451Z,2.90
2023-03-15T17:03:42.817Z,2.40
2023-03-15T17:06:20.184Z,2.83
2023-03-15T17:08:50.624Z,2.80
2023-03-15T17:11:19.577Z,2.80
2023-03-15T17:13:47.625Z,3.13
2023-03-15T17:16:16.765Z,3.23
2023-03-15T17:18:46.126Z,3.60
2023-03-15T17:21:15.391Z,3.63
2023-03-15T17:23:44.071Z,3.67
2023-03-15T17:26:16.890Z,3.60
2023-03-15T17:28:45.599Z,3.10
2023-03-15T17:31:31.042Z,3.20
2023-03-15T17:33:59.097Z,3.30
2023-03-15T17:36:30.366Z,3.40
2023-03-15T17:38:58.236Z,2.80
2023-03-15T17:41:29.833Z,3.20
2023-03-15T17:43:58.173Z,3.60
2023-03-15T17:46:30.303Z,3.83
2023-03-15T17:49:01.365Z,3.50
2023-03-15T17:51:31.363Z,3.40
2023-03-15T17:54:00.415Z,19.60
2023-03-15T17:56:30.437Z,3.43
2023-03-15T17:58:58.506Z,3.40
2023-03-15T18:01:29.201Z,3.87
2023-03-15T18:03:57.630Z,3.60
2023-03-15T18:06:25.758Z,4.10
2023-03-15T18:08:53.770Z,2.90
2023-03-15T18:11:26.298Z,4.53
2023-03-15T18:13:56.231Z,3.20
2023-03-15T18:16:24.266Z,3.17
2023-03-15T18:18:52.235Z,3.00
2023-03-15T18:21:22.546Z,2.80
2023-03-15T18:23:50.946Z,3.00
2023-03-15T18:26:19.765Z,2.93
2023-03-15T18:28:49.007Z,2.70
2023-03-15T18:31:21.034Z,2.90
2023-03-15T18:33:50.207Z,3.17
2023-03-15T18:36:18.943Z,3.10
2023-03-15T18:38:47.234Z,3.30
2023-03-15T18:41:20.481Z,3.20
2023-03-15T18:43:51.706Z,3.00
2023-03-15T18:46:24.364Z,3.40
2023-03-15T18:48:53.599Z,3.00
2023-03-15T18:51:23.141Z,3.07
2023-03-15T18:53:51.184Z,2.97
2023-03-15T18:56:21.471Z,2.50
2023-03-15T18:58:50.206Z,2.97
2023-03-15T19:01:22.410Z,3.20
2023-03-15T19:03:51.580Z,3.37
2023-03-15T19:06:20.550Z,3.27
2023-03-15T19:08:53.245Z,3.23
2023-03-15T19:11:21.990Z,3.60
2023-03-15T19:13:51.308Z,3.70
2023-03-15T19:16:21.362Z,4.83
2023-03-15T19:18:51.130Z,3.90
2023-03-15T19:21:20.251Z,4.83
2023-03-15T19:23:48.838Z,4.73
2023-03-15T19:26:16.940Z,5.17
2023-03-15T19:28:44.968Z,5.40
2023-03-15T19:31:14.861Z,5.90
2023-03-15T19:33:44.262Z,6.47
2023-03-15T19:36:12.262Z,4.60
2023-03-15T19:38:40.239Z,4.10
2023-03-15T19:41:12.441Z,3.80
2023-03-15T19:43:42.441Z,4.07
2023-03-15T19:46:13.537Z,3.20
2023-03-15T19:48:41.633Z,3.50
2023-03-15T19:51:11.520Z,3.57
2023-03-15T19:53:40.592Z,3.00
2023-03-15T19:56:10.140Z,3.40
2023-03-15T19:58:38.074Z,3.10
2023-03-15T20:01:06.189Z,2.90
2023-03-15T20:03:35.293Z,3.60
2023-03-15T20:06:09.053Z,3.13
2023-03-15T20:08:39.339Z,4.30
2023-03-15T20:11:08.062Z,11.93
2023-03-15T20:13:37.088Z,4.93
2023-03-15T20:16:06.005Z,9.47
2023-03-15T20:18:34.421Z,5.70
2023-03-15T20:21:02.534Z,4.87
2023-03-15T20:23:30.929Z,4.67
2023-03-15T20:26:09.905Z,4.80
2023-03-15T20:28:40.873Z,4.13
2023-03-15T20:31:09.760Z,4.77
2023-03-15T20:33:37.868Z,5.80
2023-03-15T20:36:08.859Z,4.93
2023-03-15T20:38:38.111Z,5.37
2023-03-15T20:41:08.171Z,5.67
2023-03-15T20:43:36.440Z,4.87
2023-03-15T20:46:05.083Z,5.20
2023-03-15T20:48:35.148Z,5.87
2023-03-15T20:51:04.500Z,5.90
2023-03-15T20:53:33.832Z,5.63
2023-03-15T20:56:01.985Z,5.37
2023-03-15T20:58:31.587Z,5.70
2023-03-15T21:01:04.600Z,5.63
2023-03-15T21:03:34.138Z,4.80
2023-03-15T21:06:03.204Z,4.30
2023-03-15T21:08:31.640Z,3.67
2023-03-15T21:10:59.677Z,3.40
2023-03-15T21:13:27.801Z,2.87
2023-03-15T21:15:57.316Z,2.80
2023-03-15T21:18:27.680Z,2.67
2023-03-15T21:20:59.962Z,3.20
2023-03-15T21:23:31.617Z,2.63
2023-03-15T21:26:03.306Z,2.30
2023-03-15T21:28:32.331Z,2.03
2023-03-15T21:31:01.722Z,2.03
2023-03-15T21:33:31.222Z,1.57
2023-03-15T21:36:00.120Z,1.67
2023-03-15T21:38:28.829Z,1.93
2023-03-15T21:40:59.320Z,2.00
2023-03-15T21:43:27.874Z,1.40
2023-03-15T21:45:58.426Z,1.17
2023-03-15T21:48:27.866Z,0.90
2023-03-15T21:50:55.810Z,1.13
2023-03-15T21:53:25.858Z,0.87
2023-03-15T21:55:56.916Z,1.27
2023-03-15T21:58:24.926Z,1.13
2023-03-15T22:00:58.677Z,1.00
2023-03-15T22:03:28.626Z,0.63
2023-03-15T22:05:56.593Z,0.87
2023-03-15T22:08:25.087Z,1.00
2023-03-15T22:10:57.439Z,0.90
2023-03-15T22:13:30.018Z,1.00
2023-03-15T22:15:58.126Z,1.03
2023-03-15T22:18:28.678Z,0.80
2023-03-15T22:20:57.646Z,0.73
2023-03-15T22:23:25.799Z,0.80
2023-03-15T22:25:55.467Z,0.50
2023-03-15T22:28:25.297Z,0.60
2023-03-15T22:30:53.704Z,0.70
2023-03-15T22:33:22.966Z,0.63
2023-03-15T22:35:59.744Z,0.70
2023-03-15T22:38:27.865Z,0.73
2023-03-15T22:41:03.349Z,0.70
2023-03-15T22:43:31.466Z,0.73
2023-03-15T22:45:59.804Z,0.70
2023-03-15T22:48:27.965Z,0.87
2023-03-15T22:51:02.010Z,0.40
2023-03-15T22:53:30.492Z,0.60
2023-03-15T22:55:59.202Z,0.57
2023-03-15T22:58:27.594Z,0.50
2023-03-15T23:00:56.278Z,0.50
2023-03-15T23:03:24.680Z,0.47
2023-03-15T23:05:52.624Z,0.40
2023-03-15T23:08:22.858Z,0.40
2023-03-15T23:10:50.992Z,0.50
2023-03-15T23:13:19.401Z,0.50
2023-03-15T23:15:47.377Z,0.60
2023-03-15T23:18:15.452Z,0.50
2023-03-15T23:20:43.824Z,0.50
2023-03-15T23:23:12.031Z,0.40
2023-03-15T23:25:43.580Z,0.60
2023-03-15T23:28:11.816Z,0.43
2023-03-15T23:30:41.943Z,0.50
2023-03-15T23:33:09.934Z,0.50
2023-03-15T23:35:37.884Z,0.60
2023-03-15T23:38:05.908Z,0.40
2023-03-15T23:40:34.063Z,0.50
2023-03-15T23:43:04.378Z,0.50
2023-03-15T23:45:32.437Z,0.50
2023-03-15T23:48:00.472Z,0.60
2023-03-15T23:50:28.826Z,0.30
2023-03-15T23:52:57.562Z,0.30
2023-03-15T23:55:25.720Z,0.30
2023-03-15T23:57:53.733Z,0.50
